createdAt,value
2023-04-12T00:02:29.219Z,6.39
2023-04-12T00:05:54.278Z,6.38
2023-04-12T00:09:19.533Z,6.38
2023-04-12T00:12:44.770Z,6.35
2023-04-12T00:16:10.018Z,6.33
2023-04-12T00:19:35.168Z,6.32
2023-04-12T00:23:00.396Z,6.31
2023-04-12T00:26:25.635Z,6.33
2023-04-12T00:29:50.905Z,6.35
2023-04-12T00:33:16.111Z,6.36
2023-04-12T00:36:41.321Z,6.34
2023-04-12T00:40:06.545Z,6.35
2023-04-12T00:43:31.799Z,6.33
2023-04-12T00:46:57.053Z,6.29
2023-04-12T00:50:22.258Z,6.27
2023-04-12T00:53:47.483Z,6.23
2023-04-12T00:57:12.689Z,6.23
2023-04-12T01:00:37.909Z,6.25
2023-04-12T01:04:03.165Z,6.24
2023-04-12T01:07:28.353Z,6.25
2023-04-12T01:10:53.594Z,6.26
2023-04-12T01:14:18.798Z,6.25
2023-04-12T01:17:44.077Z,6.23
2023-04-12T01:21:09.279Z,6.2
2023-04-12T01:24:34.460Z,6.18
2023-04-12T01:27:59.684Z,6.15
2023-04-12T01:31:25.009Z,6.13
2023-04-12T01:34:50.157Z,6.13
2023-04-12T01:38:15.370Z,6.14
2023-04-12T01:41:40.560Z,6.15
2023-04-12T01:45:05.792Z,6.15
2023-04-12T01:48:30.996Z,6.17
2023-04-12T01:51:56.200Z,6.24
2023-04-12T01:55:21.439Z,6.31
2023-04-12T01:58:46.597Z,6.31
2023-04-12T02:02:11.938Z,6.28
2023-04-12T02:05:37.024Z,6.27
2023-04-12T02:09:02.289Z,6.27
2023-04-12T02:12:27.512Z,6.28
2023-04-12T02:15:52.699Z,6.29
2023-04-12T02:19:17.897Z,6.29
2023-04-12T02:22:43.140Z,6.26
2023-04-12T02:26:08.372Z,6.18
2023-04-12T02:29:33.610Z,6.2
2023-04-12T02:32:58.833Z,6.27
2023-04-12T02:36:23.981Z,6.31
2023-04-12T02:39:49.163Z,6.34
2023-04-12T02:43:14.380Z,6.37
2023-04-12T02:46:39.645Z,6.41
2023-04-12T02:50:04.842Z,6.49
2023-04-12T02:53:30.045Z,6.53
2023-04-12T02:56:55.271Z,6.54
2023-04-12T03:00:20.464Z,6.57
2023-04-12T03:03:45.869Z,6.61
2023-04-12T03:07:10.870Z,6.63
2023-04-12T03:10:36.088Z,6.61
2023-04-12T03:14:01.280Z,6.56
2023-04-12T03:17:26.477Z,6.53
2023-04-12T03:20:51.698Z,6.48
2023-04-12T03:24:16.896Z,6.44
2023-04-12T03:27:42.101Z,6.44
2023-04-12T03:31:07.324Z,6.49
2023-04-12T03:34:32.589Z,6.53
2023-04-12T03:37:57.728Z,6.57
2023-04-12T03:41:23.286Z,6.62
2023-04-12T03:44:48.533Z,6.63
2023-04-12T03:48:13.744Z,6.65
2023-04-12T03:51:38.953Z,6.66
2023-04-12T03:55:04.199Z,6.66
2023-04-12T03:58:29.387Z,6.67
2023-04-12T04:01:54.613Z,6.68
2023-04-12T04:05:19.965Z,6.69
2023-04-12T04:08:45.080Z,6.71
2023-04-12T04:12:10.254Z,6.75
2023-04-12T04:15:35.425Z,6.79
2023-04-12T04:19:00.656Z,6.82
2023-04-12T04:22:25.859Z,6.82
2023-04-12T04:25:51.147Z,6.83
2023-04-12T04:29:16.409Z,6.85
2023-04-12T04:32:41.608Z,6.82
2023-04-12T04:36:06.890Z,6.83
2023-04-12T04:39:32.099Z,6.84
2023-04-12T04:42:57.340Z,6.79
2023-04-12T04:46:22.602Z,6.83
2023-04-12T04:49:47.764Z,6.9
2023-04-12T04:53:12.980Z,6.92
2023-04-12T04:56:38.230Z,6.92
2023-04-12T05:00:03.449Z,6.92
2023-04-12T05:03:30.440Z,6.95
2023-04-12T05:06:53.911Z,7.01
2023-04-12T05:10:19.121Z,7.02
2023-04-12T05:13:44.325Z,7.02
2023-04-12T05:17:09.573Z,7.02
2023-04-12T05:20:34.817Z,7.02
2023-04-12T05:24:00.004Z,7.02
2023-04-12T05:27:25.194Z,7.07
2023-04-12T05:30:50.408Z,7.09
2023-04-12T05:34:15.610Z,7.16
2023-04-12T05:37:40.881Z,7.23
2023-04-12T05:41:06.073Z,7.29
2023-04-12T05:44:31.266Z,7.38
2023-04-12T05:47:56.697Z,7.51
2023-04-12T05:51:30.803Z,7.61
2023-04-12T05:54:47.071Z,7.71
2023-04-12T05:58:12.288Z,7.82
2023-04-12T06:01:37.480Z,7.92
2023-04-12T06:05:02.860Z,8.03
2023-04-12T06:08:27.889Z,8.12
2023-04-12T06:11:53.150Z,8.23
2023-04-12T06:15:18.286Z,8.38
2023-04-12T06:18:43.499Z,8.51
2023-04-12T06:22:08.727Z,8.66
2023-04-12T06:25:33.932Z,8.72
2023-04-12T06:28:59.156Z,8.8
2023-04-12T06:32:24.435Z,8.91
2023-04-12T06:35:49.579Z,9.03
2023-04-12T06:39:14.749Z,9.13
2023-04-12T06:42:39.959Z,9.3
2023-04-12T06:46:05.389Z,9.43
2023-04-12T06:49:30.381Z,9.59
2023-04-12T06:52:55.675Z,9.7
2023-04-12T06:56:20.886Z,9.75
2023-04-12T06:59:46.081Z,9.75
2023-04-12T07:03:11.408Z,9.7
2023-04-12T07:06:36.538Z,9.64
2023-04-12T07:10:01.733Z,9.61
2023-04-12T07:13:26.942Z,9.63
2023-04-12T07:16:52.205Z,9.71
2023-04-12T07:20:17.503Z,9.78
2023-04-12T07:23:42.577Z,9.83
2023-04-12T07:27:07.817Z,9.92
2023-04-12T07:30:33.021Z,9.89
2023-04-12T07:33:58.295Z,9.88
2023-04-12T07:37:23.491Z,9.85
2023-04-12T07:40:50.154Z,9.87
2023-04-12T07:44:13.817Z,9.86
2023-04-12T07:47:39.046Z,9.82
2023-04-12T07:51:04.233Z,9.87
2023-04-12T07:54:30.114Z,9.9
2023-04-12T07:57:56.720Z,9.97
2023-04-12T08:01:22.012Z,10.08
2023-04-12T08:04:47.350Z,10.15
2023-04-12T08:08:12.546Z,10.16
2023-04-12T08:11:37.824Z,10.19
2023-04-12T08:15:02.990Z,10.21
2023-04-12T08:18:28.216Z,10.28
2023-04-12T08:21:53.418Z,10.26
2023-04-12T08:25:18.643Z,10.29
2023-04-12T08:28:43.880Z,10.25
2023-04-12T08:32:09.039Z,10.22
2023-04-12T08:35:34.258Z,10.17
2023-04-12T08:38:59.472Z,10.15
2023-04-12T08:42:24.744Z,10.15
2023-04-12T08:45:50.235Z,10.08
2023-04-12T08:49:15.307Z,10.03
2023-04-12T08:52:40.547Z,10.04
2023-04-12T08:56:05.839Z,10.11
2023-04-12T08:59:31.027Z,10.15
2023-04-12T09:02:56.415Z,10.16
2023-04-12T09:06:21.454Z,10.15
2023-04-12T09:09:46.741Z,10.2
2023-04-12T09:13:12.043Z,10.27
2023-04-12T09:16:37.357Z,10.3
2023-04-12T09:20:02.685Z,10.31
2023-04-12T09:23:27.809Z,10.32
2023-04-12T09:26:53.060Z,10.29
2023-04-12T09:30:18.428Z,10.27
2023-04-12T09:33:43.587Z,10.21
2023-04-12T09:37:08.858Z,10.19
2023-04-12T09:40:34.108Z,10.21
2023-04-12T09:43:59.673Z,10.27
2023-04-12T09:47:24.688Z,10.22
2023-04-12T09:50:49.938Z,10.11
2023-04-12T09:54:15.258Z,10.07
2023-04-12T09:57:40.451Z,10.06
2023-04-12T10:01:05.720Z,10.07
2023-04-12T10:04:30.925Z,10.05
2023-04-12T10:07:56.092Z,10.02
2023-04-12T10:11:21.381Z,10.01
2023-04-12T10:14:46.640Z,10.02
2023-04-12T10:18:11.969Z,10.05
2023-04-12T10:21:37.133Z,10.06
2023-04-12T10:25:02.445Z,10.01
2023-04-12T10:28:27.713Z,9.9
2023-04-12T10:31:52.943Z,9.84
2023-04-12T10:35:18.164Z,9.83
2023-04-12T10:38:43.469Z,9.85
2023-04-12T10:42:08.690Z,9.86
2023-04-12T10:45:33.941Z,9.84
2023-04-12T10:48:59.289Z,9.79
2023-04-12T10:52:24.496Z,9.81
2023-04-12T10:55:49.681Z,9.85
2023-04-12T10:59:15.028Z,9.96
2023-04-12T11:02:40.319Z,10.01
2023-04-12T11:06:19.863Z,10.08
2023-04-12T11:09:30.729Z,10.11
2023-04-12T11:12:55.930Z,10.07
2023-04-12T11:16:21.347Z,10.07
2023-04-12T11:19:46.520Z,10.08
2023-04-12T11:23:11.802Z,10.13
2023-04-12T11:26:36.922Z,10.12
2023-04-12T11:30:02.189Z,10.16
2023-04-12T11:33:27.406Z,10.31
2023-04-12T11:36:52.699Z,10.37
2023-04-12T11:40:17.943Z,10.35
2023-04-12T11:43:43.128Z,10.41
2023-04-12T11:47:08.348Z,10.5
2023-04-12T11:50:33.580Z,10.61
2023-04-12T11:53:59.101Z,10.66
2023-04-12T11:57:23.987Z,10.76
2023-04-12T12:00:49.171Z,10.87
2023-04-12T12:04:14.573Z,10.98
2023-04-12T12:07:39.586Z,11.05
2023-04-12T12:11:08.120Z,11.13
2023-04-12T12:14:30.057Z,11.25
2023-04-12T12:17:55.341Z,11.36
2023-04-12T12:21:20.468Z,11.49
2023-04-12T12:24:45.675Z,11.55
2023-04-12T12:28:10.928Z,11.54
2023-04-12T12:31:36.085Z,11.57
2023-04-12T12:35:01.276Z,11.62
2023-04-12T12:38:32.091Z,11.74
2023-04-12T12:41:51.809Z,11.78
2023-04-12T12:45:17.112Z,11.75
2023-04-12T12:48:42.370Z,11.69
2023-04-12T12:52:07.542Z,11.63
2023-04-12T12:55:32.747Z,11.65
2023-04-12T12:58:58.155Z,11.71
2023-04-12T13:02:23.436Z,11.8
2023-04-12T13:05:48.486Z,11.88
2023-04-12T13:09:13.773Z,12.02
2023-04-12T13:12:39.039Z,12.12
2023-04-12T13:16:04.289Z,12.17
2023-04-12T13:19:29.591Z,12.18
2023-04-12T13:22:54.869Z,12.21
2023-04-12T13:26:20.184Z,12.12
2023-04-12T13:29:45.414Z,12.07
2023-04-12T13:33:11.406Z,12
2023-04-12T13:36:36.035Z,11.93
2023-04-12T13:40:01.281Z,11.82
2023-04-12T13:43:26.536Z,11.74
2023-04-12T13:46:51.762Z,11.66
2023-04-12T13:50:17.025Z,11.51
2023-04-12T13:53:42.254Z,11.45
2023-04-12T13:57:07.551Z,11.37
2023-04-12T14:00:32.804Z,11.22
2023-04-12T14:03:58.029Z,11.13
2023-04-12T14:07:23.219Z,11.1
2023-04-12T14:10:48.498Z,11.07
2023-04-12T14:14:16.173Z,11.01
2023-04-12T15:56:46.167Z,11.38
2023-04-12T16:00:11.335Z,11.48
2023-04-12T16:03:36.853Z,11.58
2023-04-12T16:07:01.925Z,11.66
2023-04-12T16:10:27.071Z,11.74
2023-04-12T16:13:52.321Z,11.82
2023-04-12T16:17:17.521Z,11.85
2023-04-12T16:20:42.763Z,11.88
2023-04-12T16:24:08.004Z,11.92
2023-04-12T16:27:33.236Z,11.91
2023-04-12T16:30:58.539Z,11.91
2023-04-12T16:34:23.778Z,11.97
2023-04-12T16:37:49.026Z,12
2023-04-12T16:41:14.307Z,12.03
2023-04-12T16:44:39.534Z,12.07
2023-04-12T16:48:04.842Z,12.08
2023-04-12T16:51:36.613Z,12.08
2023-04-12T16:54:55.259Z,12.08
2023-04-12T16:58:20.496Z,12.09
2023-04-12T17:02:12.685Z,12.1
2023-04-12T17:05:37.899Z,12.05
2023-04-12T17:09:03.068Z,12.01
2023-04-12T17:12:28.314Z,11.98
2023-04-12T17:15:53.494Z,11.93
2023-04-12T17:19:18.700Z,11.92
2023-04-12T17:22:43.932Z,11.91
2023-04-12T17:26:09.239Z,11.9
2023-04-12T17:29:34.464Z,11.9
2023-04-12T17:32:59.752Z,11.91
2023-04-12T17:36:25.016Z,11.93
2023-04-12T17:39:50.245Z,11.91
2023-04-12T17:43:15.453Z,11.89
2023-04-12T17:46:40.813Z,11.88
2023-04-12T17:50:06.108Z,11.88
2023-04-12T17:53:31.308Z,11.83
2023-04-12T17:56:56.561Z,11.8
2023-04-12T18:00:21.751Z,11.77
2023-04-12T18:03:47.084Z,11.8
2023-04-12T18:07:12.201Z,11.82
2023-04-12T18:10:37.444Z,11.84
2023-04-12T18:14:02.670Z,11.83
2023-04-12T18:17:27.918Z,11.83
2023-04-12T18:20:53.117Z,11.81
2023-04-12T18:24:18.328Z,11.79
2023-04-12T18:27:43.550Z,11.78
2023-04-12T18:31:08.857Z,11.79
2023-04-12T18:34:34.038Z,11.81
2023-04-12T18:37:59.249Z,11.82
2023-04-12T18:41:24.442Z,11.81
2023-04-12T18:44:49.637Z,11.8
2023-04-12T18:48:15.011Z,11.8
2023-04-12T18:51:40.153Z,11.82
2023-04-12T18:55:05.383Z,11.82
2023-04-12T18:58:46.010Z,11.86
2023-04-12T19:01:55.821Z,11.92
2023-04-12T19:05:21.029Z,11.95
2023-04-12T19:08:46.201Z,12
2023-04-12T19:12:11.461Z,12.03
2023-04-12T19:15:36.706Z,12.02
2023-04-12T19:19:01.967Z,11.96
2023-04-12T19:22:27.228Z,11.9
2023-04-12T19:25:52.436Z,11.82
2023-04-12T19:29:17.650Z,11.72
2023-04-12T19:32:42.921Z,11.65
2023-04-12T19:36:08.116Z,11.57
2023-04-12T19:39:33.420Z,11.53
2023-04-12T19:42:58.575Z,11.53
2023-04-12T19:46:23.996Z,11.51
2023-04-12T19:49:49.144Z,11.54
2023-04-12T19:53:14.314Z,11.57
2023-04-12T19:56:39.484Z,11.66
2023-04-12T20:00:04.637Z,11.68
2023-04-12T20:03:29.850Z,11.71
2023-04-12T20:06:54.982Z,11.74
2023-04-12T20:10:20.202Z,11.73
2023-04-12T20:13:45.350Z,11.7
2023-04-12T20:17:10.587Z,11.68
2023-04-12T20:20:35.681Z,11.7
2023-04-12T20:24:00.850Z,11.69
2023-04-12T20:27:26.065Z,11.71
2023-04-12T20:30:51.282Z,11.74
2023-04-12T20:34:16.430Z,11.8
2023-04-12T20:37:41.591Z,11.85
2023-04-12T20:41:06.748Z,11.88
2023-04-12T20:44:31.917Z,11.9
2023-04-12T20:47:57.148Z,11.85
2023-04-12T20:51:22.262Z,11.78
2023-04-12T20:54:47.409Z,11.75
2023-04-12T20:58:12.558Z,11.72
2023-04-12T21:01:37.744Z,11.71
2023-04-12T21:05:02.971Z,11.67
2023-04-12T21:08:28.081Z,11.63
2023-04-12T21:11:53.255Z,11.58
2023-04-12T21:15:18.447Z,11.54
2023-04-12T21:18:43.638Z,11.45
2023-04-12T21:22:08.859Z,11.41
2023-04-12T21:25:33.963Z,11.36
2023-04-12T21:28:59.232Z,11.3
2023-04-12T21:32:24.330Z,11.26
2023-04-12T21:35:49.509Z,11.23
2023-04-12T21:39:14.728Z,11.19
2023-04-12T21:42:39.921Z,11.15
2023-04-12T21:46:05.125Z,11.13
2023-04-12T21:49:30.255Z,11.08
2023-04-12T21:52:55.418Z,11.03
2023-04-12T21:56:20.634Z,11.01
2023-04-12T21:59:45.760Z,10.98
2023-04-12T22:03:11.094Z,10.91
2023-04-12T22:06:36.165Z,10.85
2023-04-12T22:10:01.356Z,10.83
2023-04-12T22:13:26.606Z,10.83
2023-04-12T22:16:51.760Z,10.84
2023-04-12T22:20:16.921Z,10.85
2023-04-12T22:23:42.119Z,10.88
2023-04-12T22:27:07.300Z,10.95
2023-04-12T22:30:32.512Z,10.96
2023-04-12T22:33:57.775Z,10.88
2023-04-12T22:37:22.875Z,10.71
2023-04-12T22:40:48.060Z,10.46
2023-04-12T22:44:13.234Z,10.29
2023-04-12T22:47:38.448Z,10.24
2023-04-12T22:51:03.591Z,10.24
2023-04-12T22:54:28.786Z,10.25
2023-04-12T22:57:53.966Z,10.28
2023-04-12T23:01:19.146Z,10.32
2023-04-12T23:04:44.361Z,10.34
2023-04-12T23:08:09.482Z,10.36
2023-04-12T23:11:34.664Z,10.35
2023-04-12T23:14:59.832Z,10.4
2023-04-12T23:18:25.014Z,10.4
2023-04-12T23:21:50.205Z,10.41
2023-04-12T23:25:15.370Z,10.4
2023-04-12T23:28:40.529Z,10.39
2023-04-12T23:32:05.701Z,10.38
2023-04-12T23:35:30.884Z,10.38
2023-04-12T23:38:56.112Z,10.32
2023-04-12T23:42:21.237Z,10.28
2023-04-12T23:45:46.426Z,10.24
2023-04-12T23:49:11.615Z,10.21
2023-04-12T23:52:36.781Z,10.2
2023-04-12T23:56:01.989Z,10.19
2023-04-12T23:59:27.726Z,10.18
